sensor_id;sensor_type;location;lat;lon;timestamp;P1;durP1;ratioP1;P2;durP2;ratioP2
67819;SDS011;54618;52.018;5.576;2024-01-27T12:11:08;16.30;;;5.15;;
67819;SDS011;54618;52.018;5.576;2024-01-27T12:13:34;14.25;;;4.80;;
67819;SDS011;54618;52.018;5.576;2024-01-27T12:15:59;18.77;;;5.22;;
67819;SDS011;54618;52.018;5.576;2024-01-27T12:18:25;13.05;;;5.10;;
67819;SDS011;54618;52.018;5.576;2024-01-27T12:20:58;14.45;;;4.85;;
67819;SDS011;54618;52.018;5.576;2024-01-27T12:23:23;15.02;;;5.10;;
67819;SDS011;54618;52.018;5.576;2024-01-27T12:25:53;14.07;;;4.25;;
67819;SDS011;54618;52.018;5.576;2024-01-27T12:28:21;16.25;;;4.25;;
67819;SDS011;54618;52.018;5.576;2024-01-27T12:30:48;17.50;;;5.00;;
67819;SDS011;54618;52.018;5.576;2024-01-27T12:33:16;16.27;;;5.38;;
67819;SDS011;54618;52.018;5.576;2024-01-27T12:35:44;19.25;;;4.93;;
67819;SDS011;54618;52.018;5.576;2024-01-27T12:38:11;17.45;;;4.60;;
67819;SDS011;54618;52.018;5.576;2024-01-27T12:40:37;13.77;;;4.53;;
67819;SDS011;54618;52.018;5.576;2024-01-27T12:43:03;15.02;;;4.60;;
67819;SDS011;54618;52.018;5.576;2024-01-27T12:45:29;15.10;;;3.80;;
67819;SDS011;54618;52.018;5.576;2024-01-27T12:47:58;13.05;;;3.97;;
67819;SDS011;54618;52.018;5.576;2024-01-27T12:50:25;12.30;;;3.22;;
67819;SDS011;54618;52.018;5.576;2024-01-27T12:52:51;14.85;;;3.00;;
67819;SDS011;54618;52.018;5.576;2024-01-27T12:55:16;11.98;;;3.10;;
67819;SDS011;54618;52.018;5.576;2024-01-27T12:57:42;13.40;;;2.90;;
67819;SDS011;54618;52.018;5.576;2024-01-27T13:00:08;16.15;;;3.03;;
67819;SDS011;54618;52.018;5.576;2024-01-27T13:02:39;12.60;;;2.92;;
67819;SDS011;54618;52.018;5.576;2024-01-27T13:05:04;12.38;;;3.28;;
67819;SDS011;54618;52.018;5.576;2024-01-27T13:07:30;9.82;;;3.15;;
67819;SDS011;54618;52.018;5.576;2024-01-27T13:09:56;11.73;;;3.05;;
67819;SDS011;54618;52.018;5.576;2024-01-27T13:12:25;11.30;;;3.30;;
67819;SDS011;54618;52.018;5.576;2024-01-27T13:14:51;12.75;;;4.10;;
67819;SDS011;54618;52.018;5.576;2024-01-27T13:17:17;16.33;;;3.90;;
67819;SDS011;54618;52.018;5.576;2024-01-27T13:19:56;10.73;;;3.65;;
67819;SDS011;54618;52.018;5.576;2024-01-27T13:22:23;13.25;;;3.83;;
67819;SDS011;54618;52.018;5.576;2024-01-27T13:24:50;12.90;;;3.28;;
67819;SDS011;54618;52.018;5.576;2024-01-27T13:27:16;12.70;;;3.35;;
67819;SDS011;54618;52.018;5.576;2024-01-27T13:29:41;10.52;;;3.47;;
67819;SDS011;54618;52.018;5.576;2024-01-27T13:32:07;14.70;;;3.50;;
67819;SDS011;54618;52.018;5.576;2024-01-27T13:34:33;15.02;;;3.53;;
67819;SDS011;54618;52.018;5.576;2024-01-27T13:36:59;12.50;;;3.60;;
67819;SDS011;54618;52.018;5.576;2024-01-27T13:39:27;10.48;;;3.28;;
67819;SDS011;54618;52.018;5.576;2024-01-27T13:41:53;16.42;;;3.58;;
67819;SDS011;54618;52.018;5.576;2024-01-27T13:44:19;12.63;;;3.35;;
67819;SDS011;54618;52.018;5.576;2024-01-27T13:46:44;12.95;;;3.50;;
67819;SDS011;54618;52.018;5.576;2024-01-27T13:49:10;12.45;;;3.45;;
67819;SDS011;54618;52.018;5.576;2024-01-27T13:51:36;16.25;;;4.00;;
67819;SDS011;54618;52.018;5.576;2024-01-27T13:54:04;15.88;;;3.58;;
67819;SDS011;54618;52.018;5.576;2024-01-27T13:56:34;13.77;;;3.47;;
67819;SDS011;54618;52.018;5.576;2024-01-27T13:58:59;14.13;;;4.65;;
67819;SDS011;54618;52.018;5.576;2024-01-27T14:01:25;14.73;;;3.38;;
67819;SDS011;54618;52.018;5.576;2024-01-27T14:03:51;13.77;;;3.80;;
67819;SDS011;54618;52.018;5.576;2024-01-27T14:06:16;16.15;;;3.78;;
67819;SDS011;54618;52.018;5.576;2024-01-27T14:08:42;13.70;;;3.80;;
67819;SDS011;54618;52.018;5.576;2024-01-27T14:11:08;15.05;;;3.72;;
67819;SDS011;54618;52.018;5.576;2024-01-27T14:13:34;12.93;;;3.40;;
67819;SDS011;54618;52.018;5.576;2024-01-27T14:16:00;10.80;;;3.72;;
67819;SDS011;54618;52.018;5.576;2024-01-27T14:18:25;14.13;;;3.58;;
67819;SDS011;54618;52.018;5.576;2024-01-27T14:20:51;9.80;;;3.30;;
67819;SDS011;54618;52.018;5.576;2024-01-27T14:23:17;14.43;;;3.78;;
67819;SDS011;54618;52.018;5.576;2024-01-27T14:25:43;11.88;;;3.47;;
67819;SDS011;54618;52.018;5.576;2024-01-27T14:28:08;11.10;;;3.20;;
67819;SDS011;54618;52.018;5.576;2024-01-27T14:30:36;12.18;;;3.58;;
67819;SDS011;54618;52.018;5.576;2024-01-27T14:33:15;15.00;;;3.20;;
67819;SDS011;54618;52.018;5.576;2024-01-27T14:38:36;11.07;;;3.10;;
67819;SDS011;54618;52.018;5.576;2024-01-27T14:41:02;11.52;;;3.60;;
67819;SDS011;54618;52.018;5.576;2024-01-27T14:43:28;12.23;;;3.40;;
67819;SDS011;54618;52.018;5.576;2024-01-27T14:45:54;9.65;;;3.10;;
67819;SDS011;54618;52.018;5.576;2024-01-27T14:48:21;10.13;;;2.97;;
67819;SDS011;54618;52.018;5.576;2024-01-27T14:50:46;12.20;;;2.90;;
67819;SDS011;54618;52.018;5.576;2024-01-27T14:53:22;10.93;;;3.20;;
67819;SDS011;54618;52.018;5.576;2024-01-27T14:55:48;13.00;;;3.85;;
67819;SDS011;54618;52.018;5.576;2024-01-27T14:58:14;14.88;;;3.28;;
67819;SDS011;54618;52.018;5.576;2024-01-27T15:00:39;15.77;;;3.88;;
67819;SDS011;54618;52.018;5.576;2024-01-27T15:03:05;15.63;;;3.90;;
67819;SDS011;54618;52.018;5.576;2024-01-27T15:05:34;12.13;;;3.95;;
67819;SDS011;54618;52.018;5.576;2024-01-27T15:08:06;13.30;;;3.63;;
67819;SDS011;54618;52.018;5.576;2024-01-27T15:10:34;16.42;;;3.67;;
67819;SDS011;54618;52.018;5.576;2024-01-27T15:13:00;11.10;;;3.70;;
67819;SDS011;54618;52.018;5.576;2024-01-27T15:15:26;9.02;;;2.90;;
67819;SDS011;54618;52.018;5.576;2024-01-27T15:17:52;12.77;;;3.67;;
67819;SDS011;54618;52.018;5.576;2024-01-27T15:20:20;14.15;;;3.45;;
67819;SDS011;54618;52.018;5.576;2024-01-27T15:22:46;14.90;;;4.15;;
67819;SDS011;54618;52.018;5.576;2024-01-27T15:25:11;21.48;;;3.95;;
67819;SDS011;54618;52.018;5.576;2024-01-27T15:27:37;14.45;;;3.50;;
67819;SDS011;54618;52.018;5.576;2024-01-27T15:30:03;12.98;;;3.45;;
67819;SDS011;54618;52.018;5.576;2024-01-27T15:32:29;13.15;;;4.25;;
67819;SDS011;54618;52.018;5.576;2024-01-27T15:34:56;17.45;;;4.40;;
67819;SDS011;54618;52.018;5.576;2024-01-27T15:37:21;12.25;;;3.58;;
67819;SDS011;54618;52.018;5.576;2024-01-27T15:39:47;11.45;;;3.45;;
67819;SDS011;54618;52.018;5.576;2024-01-27T15:42:12;11.02;;;3.60;;
67819;SDS011;54618;52.018;5.576;2024-01-27T15:44:38;13.85;;;3.70;;
67819;SDS011;54618;52.018;5.576;2024-01-27T15:47:04;15.40;;;4.60;;
67819;SDS011;54618;52.018;5.576;2024-01-27T15:49:31;15.32;;;4.40;;
67819;SDS011;54618;52.018;5.576;2024-01-27T15:52:00;13.77;;;4.32;;
67819;SDS011;54618;52.018;5.576;2024-01-27T15:54:25;11.30;;;3.67;;
67819;SDS011;54618;52.018;5.576;2024-01-27T15:56:51;19.55;;;4.00;;
67819;SDS011;54618;52.018;5.576;2024-01-27T15:59:17;13.50;;;4.10;;
67819;SDS011;54618;52.018;5.576;2024-01-27T16:01:42;13.55;;;4.00;;
67819;SDS011;54618;52.018;5.576;2024-01-27T16:04:08;17.42;;;4.35;;
67819;SDS011;54618;52.018;5.576;2024-01-27T16:06:36;14.38;;;3.58;;
67819;SDS011;54618;52.018;5.576;2024-01-27T16:09:05;18.05;;;5.50;;
67819;SDS011;54618;52.018;5.576;2024-01-27T16:11:31;16.00;;;4.10;;
67819;SDS011;54618;52.018;5.576;2024-01-27T16:13:58;17.77;;;4.28;;
67819;SDS011;54618;52.018;5.576;2024-01-27T16:16:24;16.73;;;3.60;;
67819;SDS011;54618;52.018;5.576;2024-01-27T16:18:50;19.45;;;3.80;;
67819;SDS011;54618;52.018;5.576;2024-01-27T16:22:34;13.88;;;3.78;;
67819;SDS011;54618;52.018;5.576;2024-01-27T16:25:00;13.98;;;4.57;;
67819;SDS011;54618;52.018;5.576;2024-01-27T16:27:26;14.10;;;4.65;;
67819;SDS011;54618;52.018;5.576;2024-01-27T16:29:54;15.77;;;4.15;;
67819;SDS011;54618;52.018;5.576;2024-01-27T16:32:21;23.77;;;4.10;;
67819;SDS011;54618;52.018;5.576;2024-01-27T16:34:47;13.88;;;3.72;;
67819;SDS011;54618;52.018;5.576;2024-01-27T16:37:13;11.52;;;4.20;;
67819;SDS011;54618;52.018;5.576;2024-01-27T16:39:39;12.00;;;3.60;;
67819;SDS011;54618;52.018;5.576;2024-01-27T16:42:04;17.90;;;4.20;;
67819;SDS011;54618;52.018;5.576;2024-01-27T16:44:30;18.80;;;4.65;;
67819;SDS011;54618;52.018;5.576;2024-01-27T16:46:56;11.27;;;3.97;;
67819;SDS011;54618;52.018;5.576;2024-01-27T16:49:21;16.08;;;4.28;;
67819;SDS011;54618;52.018;5.576;2024-01-27T16:51:47;24.35;;;6.13;;
67819;SDS011;54618;52.018;5.576;2024-01-27T16:54:14;14.05;;;4.32;;
67819;SDS011;54618;52.018;5.576;2024-01-27T16:56:40;16.33;;;4.90;;
67819;SDS011;54618;52.018;5.576;2024-01-27T16:59:05;18.00;;;4.78;;
67819;SDS011;54618;52.018;5.576;2024-01-27T17:01:33;18.17;;;4.50;;
67819;SDS011;54618;52.018;5.576;2024-01-27T17:04:00;21.85;;;6.03;;
67819;SDS011;54618;52.018;5.576;2024-01-27T17:06:25;24.50;;;7.47;;
67819;SDS011;54618;52.018;5.576;2024-01-27T17:08:51;22.75;;;7.90;;
67819;SDS011;54618;52.018;5.576;2024-01-27T17:11:17;23.40;;;8.40;;
67819;SDS011;54618;52.018;5.576;2024-01-27T17:13:42;19.73;;;7.22;;
67819;SDS011;54618;52.018;5.576;2024-01-27T17:16:09;26.08;;;8.35;;
67819;SDS011;54618;52.018;5.576;2024-01-27T17:18:35;24.40;;;8.40;;
67819;SDS011;54618;52.018;5.576;2024-01-27T17:21:03;20.40;;;8.15;;
67819;SDS011;54618;52.018;5.576;2024-01-27T17:23:29;19.98;;;8.18;;
67819;SDS011;54618;52.018;5.576;2024-01-27T17:26:01;24.15;;;8.13;;
67819;SDS011;54618;52.018;5.576;2024-01-27T17:28:30;22.38;;;9.23;;
67819;SDS011;54618;52.018;5.576;2024-01-27T17:30:56;22.23;;;8.45;;
67819;SDS011;54618;52.018;5.576;2024-01-27T17:33:21;21.90;;;8.95;;
67819;SDS011;54618;52.018;5.576;2024-01-27T17:35:47;24.42;;;8.68;;
67819;SDS011;54618;52.018;5.576;2024-01-27T17:38:14;21.05;;;7.40;;
67819;SDS011;54618;52.018;5.576;2024-01-27T17:40:39;24.65;;;9.00;;
67819;SDS011;54618;52.018;5.576;2024-01-27T17:43:05;23.67;;;7.93;;
67819;SDS011;54618;52.018;5.576;2024-01-27T17:45:31;24.88;;;8.90;;
67819;SDS011;54618;52.018;5.576;2024-01-27T17:47:56;19.23;;;7.68;;
67819;SDS011;54618;52.018;5.576;2024-01-27T17:50:22;20.83;;;8.13;;
67819;SDS011;54618;52.018;5.576;2024-01-27T17:52:47;25.13;;;7.65;;
67819;SDS011;54618;52.018;5.576;2024-01-27T17:55:13;16.35;;;6.90;;
67819;SDS011;54618;52.018;5.576;2024-01-27T17:57:42;21.70;;;6.53;;
67819;SDS011;54618;52.018;5.576;2024-01-27T18:00:08;18.70;;;5.90;;
67819;SDS011;54618;52.018;5.576;2024-01-27T18:02:37;24.40;;;6.60;;
67819;SDS011;54618;52.018;5.576;2024-01-27T18:05:06;20.42;;;6.07;;
67819;SDS011;54618;52.018;5.576;2024-01-27T18:07:32;14.07;;;6.03;;
67819;SDS011;54618;52.018;5.576;2024-01-27T18:10:00;15.07;;;5.82;;
67819;SDS011;54618;52.018;5.576;2024-01-27T18:12:29;18.90;;;5.63;;
67819;SDS011;54618;52.018;5.576;2024-01-27T18:14:55;17.90;;;5.90;;
67819;SDS011;54618;52.018;5.576;2024-01-27T18:17:20;15.18;;;5.78;;
67819;SDS011;54618;52.018;5.576;2024-01-27T18:19:46;14.10;;;5.38;;
67819;SDS011;54618;52.018;5.576;2024-01-27T18:22:13;15.75;;;5.90;;
67819;SDS011;54618;52.018;5.576;2024-01-27T18:24:39;14.65;;;6.10;;
67819;SDS011;54618;52.018;5.576;2024-01-27T18:27:04;16.65;;;6.03;;
67819;SDS011;54618;52.018;5.576;2024-01-27T18:29:33;15.27;;;5.75;;
67819;SDS011;54618;52.018;5.576;2024-01-27T18:31:59;16.05;;;5.97;;
67819;SDS011;54618;52.018;5.576;2024-01-27T18:34:25;15.70;;;6.28;;
67819;SDS011;54618;52.018;5.576;2024-01-27T18:36:50;21.90;;;6.38;;
67819;SDS011;54618;52.018;5.576;2024-01-27T18:39:16;18.73;;;6.15;;
67819;SDS011;54618;52.018;5.576;2024-01-27T18:41:44;17.80;;;6.30;;
67819;SDS011;54618;52.018;5.576;2024-01-27T18:44:10;15.88;;;6.47;;
67819;SDS011;54618;52.018;5.576;2024-01-27T18:46:38;15.50;;;6.22;;
67819;SDS011;54618;52.018;5.576;2024-01-27T18:49:04;22.85;;;6.28;;
67819;SDS011;54618;52.018;5.576;2024-01-27T18:51:30;18.80;;;6.72;;
67819;SDS011;54618;52.018;5.576;2024-01-27T18:53:55;19.63;;;6.85;;
67819;SDS011;54618;52.018;5.576;2024-01-27T18:56:21;16.35;;;5.82;;
67819;SDS011;54618;52.018;5.576;2024-01-27T18:58:47;18.40;;;6.97;;
67819;SDS011;54618;52.018;5.576;2024-01-27T19:01:12;20.52;;;6.70;;
67819;SDS011;54618;52.018;5.576;2024-01-27T19:03:38;18.42;;;6.50;;
67819;SDS011;54618;52.018;5.576;2024-01-27T19:06:04;23.95;;;7.28;;
67819;SDS011;54618;52.018;5.576;2024-01-27T19:08:30;19.77;;;7.97;;
67819;SDS011;54618;52.018;5.576;2024-01-27T19:10:56;21.67;;;7.35;;
67819;SDS011;54618;52.018;5.576;2024-01-27T19:13:21;22.63;;;6.57;;
67819;SDS011;54618;52.018;5.576;2024-01-27T19:15:50;20.48;;;7.68;;
67819;SDS011;54618;52.018;5.576;2024-01-27T19:18:19;18.85;;;7.20;;
67819;SDS011;54618;52.018;5.576;2024-01-27T19:20:45;18.63;;;7.78;;
67819;SDS011;54618;52.018;5.576;2024-01-27T19:23:11;17.33;;;7.68;;
67819;SDS011;54618;52.018;5.576;2024-01-27T19:25:37;20.65;;;7.13;;
67819;SDS011;54618;52.018;5.576;2024-01-27T19:28:03;13.32;;;6.25;;
67819;SDS011;54618;52.018;5.576;2024-01-27T19:30:30;19.13;;;7.45;;
67819;SDS011;54618;52.018;5.576;2024-01-27T19:32:56;19.75;;;8.20;;
67819;SDS011;54618;52.018;5.576;2024-01-27T19:35:22;19.73;;;7.78;;
67819;SDS011;54618;52.018;5.576;2024-01-27T19:37:47;18.48;;;7.95;;
67819;SDS011;54618;52.018;5.576;2024-01-27T19:40:13;20.40;;;8.18;;
67819;SDS011;54618;52.018;5.576;2024-01-27T19:42:41;22.95;;;7.25;;
67819;SDS011;54618;52.018;5.576;2024-01-27T19:45:08;13.02;;;6.82;;
67819;SDS011;54618;52.018;5.576;2024-01-27T19:47:34;14.48;;;6.43;;
67819;SDS011;54618;52.018;5.576;2024-01-27T19:50:00;16.23;;;6.97;;
67819;SDS011;54618;52.018;5.576;2024-01-27T19:52:27;22.15;;;7.53;;
67819;SDS011;54618;52.018;5.576;2024-01-27T19:54:57;18.67;;;7.30;;
67819;SDS011;54618;52.018;5.576;2024-01-27T19:57:25;21.98;;;6.97;;
67819;SDS011;54618;52.018;5.576;2024-01-27T19:59:51;23.70;;;6.95;;
67819;SDS011;54618;52.018;5.576;2024-01-27T20:02:16;18.27;;;6.40;;
67819;SDS011;54618;52.018;5.576;2024-01-27T20:04:42;22.13;;;7.47;;
67819;SDS011;54618;52.018;5.576;2024-01-27T20:07:11;19.80;;;7.45;;
67819;SDS011;54618;52.018;5.576;2024-01-27T20:09:37;15.82;;;6.82;;
67819;SDS011;54618;52.018;5.576;2024-01-27T20:12:06;17.50;;;6.43;;
67819;SDS011;54618;52.018;5.576;2024-01-27T20:14:32;19.63;;;6.97;;
67819;SDS011;54618;52.018;5.576;2024-01-27T20:16:58;16.30;;;6.85;;
67819;SDS011;54618;52.018;5.576;2024-01-27T20:19:24;16.13;;;6.78;;
67819;SDS011;54618;52.018;5.576;2024-01-27T20:21:50;23.85;;;6.78;;
67819;SDS011;54618;52.018;5.576;2024-01-27T20:24:16;15.32;;;6.70;;
67819;SDS011;54618;52.018;5.576;2024-01-27T20:26:42;16.67;;;6.88;;
67819;SDS011;54618;52.018;5.576;2024-01-27T20:29:08;17.65;;;6.30;;
67819;SDS011;54618;52.018;5.576;2024-01-27T20:31:34;18.25;;;6.95;;
67819;SDS011;54618;52.018;5.576;2024-01-27T20:34:09;17.85;;;6.85;;
67819;SDS011;54618;52.018;5.576;2024-01-27T20:36:53;20.15;;;7.78;;
67819;SDS011;54618;52.018;5.576;2024-01-27T20:39:19;22.52;;;7.43;;
67819;SDS011;54618;52.018;5.576;2024-01-27T20:41:45;22.48;;;8.00;;
67819;SDS011;54618;52.018;5.576;2024-01-27T20:44:10;15.07;;;7.22;;
67819;SDS011;54618;52.018;5.576;2024-01-27T20:46:36;18.48;;;8.20;;
67819;SDS011;54618;52.018;5.576;2024-01-27T20:49:06;20.45;;;8.52;;
67819;SDS011;54618;52.018;5.576;2024-01-27T20:51:32;18.23;;;6.68;;
67819;SDS011;54618;52.018;5.576;2024-01-27T20:53:57;18.17;;;6.93;;
67819;SDS011;54618;52.018;5.576;2024-01-27T20:56:23;14.43;;;7.38;;
67819;SDS011;54618;52.018;5.576;2024-01-27T20:58:49;18.38;;;7.03;;
67819;SDS011;54618;52.018;5.576;2024-01-27T21:01:15;16.88;;;7.15;;
67819;SDS011;54618;52.018;5.576;2024-01-27T21:03:42;16.08;;;7.57;;
67819;SDS011;54618;52.018;5.576;2024-01-27T21:06:08;18.23;;;6.53;;
67819;SDS011;54618;52.018;5.576;2024-01-27T21:08:34;14.60;;;6.25;;
67819;SDS011;54618;52.018;5.576;2024-01-27T21:10:59;20.17;;;6.38;;
67819;SDS011;54618;52.018;5.576;2024-01-27T21:13:28;17.02;;;6.40;;
67819;SDS011;54618;52.018;5.576;2024-01-27T21:15:58;15.10;;;6.53;;
67819;SDS011;54618;52.018;5.576;2024-01-27T21:18:24;17.23;;;5.95;;
67819;SDS011;54618;52.018;5.576;2024-01-27T21:20:50;12.48;;;6.30;;
67819;SDS011;54618;52.018;5.576;2024-01-27T21:23:20;14.00;;;5.85;;
67819;SDS011;54618;52.018;5.576;2024-01-27T21:25:52;16.73;;;6.65;;
67819;SDS011;54618;52.018;5.576;2024-01-27T21:28:17;16.17;;;6.43;;
67819;SDS011;54618;52.018;5.576;2024-01-27T21:30:43;17.63;;;5.78;;
67819;SDS011;54618;52.018;5.576;2024-01-27T21:33:12;17.98;;;6.45;;
67819;SDS011;54618;52.018;5.576;2024-01-27T21:35:38;17.17;;;6.15;;
67819;SDS011;54618;52.018;5.576;2024-01-27T21:38:06;18.10;;;6.38;;
67819;SDS011;54618;52.018;5.576;2024-01-27T21:40:32;13.95;;;6.35;;
67819;SDS011;54618;52.018;5.576;2024-01-27T21:43:01;11.52;;;5.72;;
67819;SDS011;54618;52.018;5.576;2024-01-27T21:45:27;17.13;;;5.80;;
67819;SDS011;54618;52.018;5.576;2024-01-27T21:47:53;18.42;;;5.88;;
67819;SDS011;54618;52.018;5.576;2024-01-27T21:50:19;15.43;;;6.40;;
67819;SDS011;54618;52.018;5.576;2024-01-27T21:52:44;15.10;;;6.03;;
67819;SDS011;54618;52.018;5.576;2024-01-27T21:55:12;16.05;;;5.60;;
67819;SDS011;54618;52.018;5.576;2024-01-27T21:57:38;16.95;;;5.60;;
67819;SDS011;54618;52.018;5.576;2024-01-27T22:00:07;19.15;;;6.15;;
67819;SDS011;54618;52.018;5.576;2024-01-27T22:02:36;17.70;;;6.28;;
67819;SDS011;54618;52.018;5.576;2024-01-27T22:05:03;16.65;;;5.75;;
67819;SDS011;54618;52.018;5.576;2024-01-27T22:07:35;13.07;;;5.53;;
67819;SDS011;54618;52.018;5.576;2024-01-27T22:10:01;15.48;;;5.25;;
67819;SDS011;54618;52.018;5.576;2024-01-27T22:12:27;11.98;;;6.38;;
67819;SDS011;54618;52.018;5.576;2024-01-27T22:14:53;15.43;;;5.22;;
67819;SDS011;54618;52.018;5.576;2024-01-27T22:17:19;10.40;;;5.10;;
67819;SDS011;54618;52.018;5.576;2024-01-27T22:19:44;13.05;;;5.38;;
67819;SDS011;54618;52.018;5.576;2024-01-27T22:22:10;16.52;;;5.20;;
67819;SDS011;54618;52.018;5.576;2024-01-27T22:24:35;11.10;;;5.03;;
67819;SDS011;54618;52.018;5.576;2024-01-27T22:27:01;14.30;;;5.95;;
67819;SDS011;54618;52.018;5.576;2024-01-27T22:29:27;16.17;;;6.47;;
67819;SDS011;54618;52.018;5.576;2024-01-27T22:31:55;14.30;;;6.00;;
67819;SDS011;54618;52.018;5.576;2024-01-27T22:34:21;15.18;;;6.07;;
67819;SDS011;54618;52.018;5.576;2024-01-27T22:36:47;18.40;;;5.90;;
67819;SDS011;54618;52.018;5.576;2024-01-27T22:39:13;15.00;;;5.82;;
67819;SDS011;54618;52.018;5.576;2024-01-27T22:41:38;12.35;;;5.32;;
67819;SDS011;54618;52.018;5.576;2024-01-27T22:44:05;12.18;;;5.50;;
67819;SDS011;54618;52.018;5.576;2024-01-27T22:46:31;17.73;;;6.22;;
67819;SDS011;54618;52.018;5.576;2024-01-27T22:48:57;15.70;;;5.90;;
67819;SDS011;54618;52.018;5.576;2024-01-27T22:51:22;16.85;;;6.10;;
67819;SDS011;54618;52.018;5.576;2024-01-27T22:53:49;16.02;;;6.38;;
67819;SDS011;54618;52.018;5.576;2024-01-27T22:56:15;15.93;;;5.85;;
67819;SDS011;54618;52.018;5.576;2024-01-27T22:58:41;14.65;;;5.63;;
67819;SDS011;54618;52.018;5.576;2024-01-27T23:01:06;12.93;;;5.70;;
67819;SDS011;54618;52.018;5.576;2024-01-27T23:03:37;11.80;;;5.15;;
67819;SDS011;54618;52.018;5.576;2024-01-27T23:06:02;15.38;;;5.50;;
67819;SDS011;54618;52.018;5.576;2024-01-27T23:08:31;21.10;;;5.90;;
67819;SDS011;54618;52.018;5.576;2024-01-27T23:10:56;13.02;;;5.82;;
67819;SDS011;54618;52.018;5.576;2024-01-27T23:13:23;15.57;;;5.47;;
67819;SDS011;54618;52.018;5.576;2024-01-27T23:15:52;14.95;;;5.55;;
67819;SDS011;54618;52.018;5.576;2024-01-27T23:18:18;18.05;;;6.30;;
67819;SDS011;54618;52.018;5.576;2024-01-27T23:20:44;20.30;;;6.50;;
67819;SDS011;54618;52.018;5.576;2024-01-27T23:23:10;13.15;;;6.70;;
67819;SDS011;54618;52.018;5.576;2024-01-27T23:25:37;15.25;;;6.18;;
67819;SDS011;54618;52.018;5.576;2024-01-27T23:28:06;18.40;;;6.05;;
67819;SDS011;54618;52.018;5.576;2024-01-27T23:30:32;12.10;;;5.82;;
67819;SDS011;54618;52.018;5.576;2024-01-27T23:32:57;16.65;;;6.18;;
67819;SDS011;54618;52.018;5.576;2024-01-27T23:35:23;19.25;;;6.85;;
67819;SDS011;54618;52.018;5.576;2024-01-27T23:37:49;17.25;;;6.40;;
67819;SDS011;54618;52.018;5.576;2024-01-27T23:40:15;16.42;;;6.35;;
67819;SDS011;54618;52.018;5.576;2024-01-27T23:42:41;18.67;;;6.63;;
67819;SDS011;54618;52.018;5.576;2024-01-27T23:45:07;14.18;;;5.93;;
67819;SDS011;54618;52.018;5.576;2024-01-27T23:47:36;18.85;;;6.60;;
67819;SDS011;54618;52.018;5.576;2024-01-27T23:50:02;12.32;;;5.57;;
67819;SDS011;54618;52.018;5.576;2024-01-27T23:52:28;15.70;;;5.72;;
67819;SDS011;54618;52.018;5.576;2024-01-27T23:57:25;12.52;;;5.70;;
67819;SDS011;54618;52.018;5.576;2024-01-27T23:59:50;10.15;;;5.68;;
